createdAt,value
2017-07-19T00:00:03.591Z,16.4
2017-07-19T00:15:04.071Z,16.3
2017-07-19T00:30:02.808Z,16.3
2017-07-19T00:45:03.424Z,16.2
2017-07-19T01:00:03.644Z,16.2
2017-07-19T01:15:02.811Z,16.1
2017-07-19T01:30:04.285Z,16.1
2017-07-19T01:45:03.458Z,16.1
2017-07-19T02:00:09.490Z,16
2017-07-19T02:15:03.649Z,16
2017-07-19T02:30:03.939Z,15.9
2017-07-19T02:45:02.521Z,15.9
2017-07-19T03:00:03.122Z,15.9
2017-07-19T03:15:02.703Z,15.8
2017-07-19T03:30:03.448Z,15.8
2017-07-19T03:45:03.033Z,15.8
2017-07-19T04:00:02.590Z,15.7
2017-07-19T04:15:03.154Z,15.7
2017-07-19T04:30:02.851Z,15.6
2017-07-19T04:45:04.493Z,15.6
2017-07-19T05:00:03.013Z,15.6
2017-07-19T05:15:02.809Z,15.6
2017-07-19T05:30:03.908Z,15.6
2017-07-19T05:45:03.453Z,15.6
2017-07-19T06:00:06.053Z,15.6
2017-07-19T06:15:02.598Z,15.5
2017-07-19T06:30:03.612Z,15.5
2017-07-19T06:45:02.637Z,15.5
2017-07-19T07:00:03.213Z,15.5
2017-07-19T07:15:02.830Z,15.6
2017-07-19T07:30:03.633Z,15.6
2017-07-19T07:45:04.044Z,15.6
2017-07-19T08:00:02.618Z,15.6
2017-07-19T08:15:03.202Z,15.7
2017-07-19T08:30:02.907Z,15.7
2017-07-19T08:45:02.552Z,15.8
2017-07-19T09:00:03.110Z,15.8
2017-07-19T09:15:02.690Z,15.9
2017-07-19T09:30:03.329Z,15.9
2017-07-19T09:45:02.905Z,16
2017-07-19T10:00:02.518Z,16.1
2017-07-19T10:15:03.111Z,16.1
2017-07-19T10:30:02.816Z,16.2
2017-07-19T10:45:03.522Z,16.3
2017-07-19T11:00:03.141Z,16.4
2017-07-19T11:15:02.734Z,16.5
2017-07-19T11:30:03.543Z,16.6
2017-07-19T11:45:03.134Z,16.7
2017-07-19T12:00:02.750Z,16.8
2017-07-19T12:15:03.297Z,16.9
2017-07-19T12:30:02.918Z,17
2017-07-19T12:45:02.495Z,17.2
2017-07-19T13:00:03.039Z,17.3
2017-07-19T13:15:02.616Z,17.4
2017-07-19T13:30:03.326Z,17.5
2017-07-19T13:45:02.924Z,17.6
2017-07-19T14:00:03.714Z,17.7
2017-07-19T14:15:03.326Z,17.8
2017-07-19T14:30:02.951Z,17.8
2017-07-19T14:45:02.508Z,17.9
2017-07-19T15:00:03.149Z,18
2017-07-19T15:15:02.702Z,18.1
2017-07-19T15:30:04.738Z,18.1
2017-07-19T15:45:03.446Z,18.1
2017-07-19T16:00:03.064Z,18.1
2017-07-19T16:15:02.629Z,18.1
2017-07-19T16:30:03.284Z,18.1
2017-07-19T16:45:02.811Z,18.1
2017-07-19T17:00:03.419Z,18
2017-07-19T17:15:03.030Z,18
2017-07-19T17:30:02.721Z,17.9
2017-07-19T17:45:03.309Z,17.9
2017-07-19T18:00:02.923Z,17.9
2017-07-19T18:30:02.684Z,17.8
2017-07-19T18:45:03.296Z,17.7
2017-07-19T19:00:02.914Z,17.6
2017-07-19T19:15:03.520Z,17.5
2017-07-19T19:30:03.229Z,17.4
2017-07-19T19:45:02.792Z,17.4
2017-07-19T20:00:03.428Z,17.3
2017-07-19T20:15:03.037Z,17.2
2017-07-19T20:30:02.715Z,17.1
2017-07-19T20:45:03.403Z,17.1
2017-07-19T21:00:02.969Z,17
2017-07-19T21:15:02.540Z,16.9
2017-07-19T21:30:03.258Z,16.8
2017-07-19T21:45:02.824Z,16.8
2017-07-19T22:00:03.471Z,16.6
2017-07-19T22:15:03.068Z,16.6
2017-07-19T22:30:02.756Z,16.5
2017-07-19T22:45:03.374Z,16.4
2017-07-19T23:00:02.964Z,16.4
2017-07-19T23:15:02.560Z,16.3
2017-07-19T23:30:03.215Z,16.3
2017-07-19T23:45:03.218Z,16.2
